createdAt,value
2022-08-31T00:01:31.643Z,1.50
2022-08-31T00:04:03.173Z,1.83
2022-08-31T00:06:34.061Z,2.10
2022-08-31T00:09:02.112Z,1.80
2022-08-31T00:11:31.078Z,1.73
2022-08-31T00:14:07.160Z,1.90
2022-08-31T00:16:41.720Z,2.13
2022-08-31T00:19:09.095Z,2.10
2022-08-31T00:21:36.100Z,2.10
2022-08-31T00:24:03.463Z,2.03
2022-08-31T00:26:30.385Z,1.80
2022-08-31T00:28:57.527Z,2.00
2022-08-31T00:31:24.570Z,2.10
2022-08-31T00:33:53.574Z,1.85
2022-08-31T00:36:24.325Z,1.95
2022-08-31T00:38:52.567Z,2.00
2022-08-31T00:41:26.814Z,2.00
2022-08-31T00:44:00.044Z,1.92
2022-08-31T00:46:32.345Z,1.77
2022-08-31T00:49:21.777Z,1.90
2022-08-31T00:51:55.630Z,1.80
2022-08-31T00:54:41.269Z,2.40
2022-08-31T00:57:12.697Z,1.83
2022-08-31T00:59:44.473Z,2.30
2022-08-31T01:02:13.098Z,1.98
2022-08-31T01:04:42.538Z,2.20
2022-08-31T01:07:10.108Z,2.22
2022-08-31T01:09:45.196Z,1.80
2022-08-31T01:12:24.368Z,2.00
2022-08-31T01:14:52.138Z,2.20
2022-08-31T01:17:21.497Z,1.95
2022-08-31T01:20:04.377Z,2.25
2022-08-31T01:22:51.902Z,2.10
2022-08-31T01:25:20.772Z,2.45
2022-08-31T01:27:48.246Z,1.80
2022-08-31T01:30:25.623Z,1.98
2022-08-31T01:32:53.236Z,2.10
2022-08-31T01:35:20.445Z,1.90
2022-08-31T01:37:48.262Z,1.75
2022-08-31T01:40:16.258Z,1.75
2022-08-31T01:42:43.659Z,2.00
2022-08-31T01:45:12.912Z,2.08
2022-08-31T01:47:41.520Z,1.70
2022-08-31T01:50:09.615Z,1.88
2022-08-31T01:52:38.381Z,2.17
2022-08-31T01:55:08.227Z,2.10
2022-08-31T01:57:35.565Z,1.70
2022-08-31T02:00:26.525Z,1.92
2022-08-31T02:03:02.766Z,1.90
2022-08-31T02:05:29.743Z,1.52
2022-08-31T02:07:57.892Z,1.90
2022-08-31T02:10:27.483Z,1.98
2022-08-31T02:12:54.605Z,2.40
2022-08-31T02:15:30.314Z,1.95
2022-08-31T02:17:57.356Z,1.80
2022-08-31T02:20:24.829Z,1.92
2022-08-31T02:22:51.868Z,1.70
2022-08-31T02:25:18.979Z,1.88
2022-08-31T02:27:46.425Z,1.98
2022-08-31T02:30:18.540Z,2.10
2022-08-31T02:32:45.556Z,1.95
2022-08-31T02:35:13.418Z,1.88
2022-08-31T02:37:40.596Z,1.98
2022-08-31T02:40:12.263Z,1.77
2022-08-31T02:42:52.988Z,1.80
2022-08-31T02:45:24.363Z,1.90
2022-08-31T02:47:52.331Z,1.83
2022-08-31T02:50:34.110Z,1.75
2022-08-31T02:53:01.202Z,1.70
2022-08-31T02:55:29.679Z,1.77
2022-08-31T02:57:56.691Z,1.70
2022-08-31T03:00:27.264Z,1.70
2022-08-31T03:02:54.949Z,1.80
2022-08-31T03:05:23.576Z,1.58
2022-08-31T03:07:51.140Z,1.90
2022-08-31T03:10:21.866Z,2.00
2022-08-31T03:12:50.498Z,1.90
2022-08-31T03:15:20.509Z,2.03
2022-08-31T03:17:47.965Z,1.90
2022-08-31T03:20:18.483Z,2.00
2022-08-31T03:22:46.395Z,1.80
2022-08-31T03:25:16.302Z,2.22
2022-08-31T03:27:44.687Z,1.70
2022-08-31T03:30:15.587Z,1.77
2022-08-31T03:32:48.400Z,2.17
2022-08-31T03:35:18.184Z,1.90
2022-08-31T03:37:46.324Z,1.98
2022-08-31T03:40:15.060Z,1.90
2022-08-31T03:42:44.705Z,2.33
2022-08-31T03:45:14.069Z,1.70
2022-08-31T03:47:44.476Z,2.13
2022-08-31T03:50:13.334Z,2.17
2022-08-31T03:53:13.516Z,2.10
2022-08-31T03:55:43.947Z,1.73
2022-08-31T03:58:11.884Z,1.75
2022-08-31T04:00:40.147Z,1.83
2022-08-31T04:03:20.546Z,1.80
2022-08-31T04:06:19.644Z,1.77
2022-08-31T04:09:04.956Z,1.85
2022-08-31T04:12:07.460Z,1.75
2022-08-31T04:15:00.559Z,1.55
2022-08-31T04:17:46.962Z,1.70
2022-08-31T04:20:36.371Z,1.77
2022-08-31T04:23:04.141Z,1.80
2022-08-31T04:25:41.371Z,2.00
2022-08-31T04:28:09.712Z,1.70
2022-08-31T04:30:43.632Z,1.88
2022-08-31T04:33:18.268Z,1.83
2022-08-31T04:35:45.758Z,1.95
2022-08-31T04:38:13.572Z,1.88
2022-08-31T04:40:44.089Z,1.80
2022-08-31T04:43:11.761Z,1.70
2022-08-31T04:45:46.006Z,1.73
2022-08-31T04:48:13.964Z,1.73
2022-08-31T04:50:42.879Z,1.55
2022-08-31T04:53:10.939Z,1.90
2022-08-31T04:55:43.125Z,1.85
2022-08-31T04:58:13.774Z,1.83
2022-08-31T05:00:44.088Z,1.52
2022-08-31T05:03:26.139Z,1.58
2022-08-31T05:05:56.985Z,1.50
2022-08-31T05:08:25.804Z,1.60
2022-08-31T05:10:53.176Z,1.73
2022-08-31T05:13:23.065Z,1.55
2022-08-31T05:15:54.766Z,1.52
2022-08-31T05:18:22.263Z,1.75
2022-08-31T05:20:55.610Z,1.55
2022-08-31T05:23:22.926Z,1.80
2022-08-31T05:25:50.118Z,1.70
2022-08-31T05:28:23.152Z,1.70
2022-08-31T05:30:50.377Z,1.80
2022-08-31T05:33:32.435Z,2.03
2022-08-31T05:36:02.905Z,1.90
2022-08-31T05:38:30.662Z,1.92
2022-08-31T05:41:01.466Z,1.58
2022-08-31T05:43:29.298Z,1.63
2022-08-31T05:45:57.534Z,2.00
2022-08-31T05:48:30.124Z,1.77
2022-08-31T05:51:06.034Z,2.00
2022-08-31T05:53:35.133Z,1.88
2022-08-31T05:56:10.911Z,1.63
2022-08-31T05:58:40.538Z,1.90
2022-08-31T06:01:33.707Z,1.95
2022-08-31T06:04:08.922Z,1.60
2022-08-31T06:06:37.229Z,1.95
2022-08-31T06:09:07.561Z,2.10
2022-08-31T06:11:38.336Z,1.88
2022-08-31T06:14:06.328Z,2.03
2022-08-31T06:16:34.003Z,1.80
2022-08-31T06:19:05.896Z,1.77
2022-08-31T06:21:49.838Z,1.77
2022-08-31T06:24:23.599Z,1.58
2022-08-31T06:26:58.047Z,1.67
2022-08-31T06:29:33.220Z,1.70
2022-08-31T06:32:10.038Z,1.85
2022-08-31T06:34:47.072Z,1.98
2022-08-31T06:37:34.675Z,1.67
2022-08-31T06:40:08.307Z,1.60
2022-08-31T06:42:55.100Z,1.80
2022-08-31T06:45:47.113Z,1.80
2022-08-31T06:48:40.369Z,1.95
2022-08-31T06:51:12.683Z,1.83
2022-08-31T06:53:44.827Z,1.65
2022-08-31T06:56:31.866Z,1.80
2022-08-31T06:59:28.485Z,1.90
2022-08-31T07:02:11.231Z,1.80
2022-08-31T07:04:39.561Z,1.88
2022-08-31T07:07:11.319Z,1.80
2022-08-31T07:09:41.072Z,1.90
2022-08-31T07:12:09.702Z,1.75
2022-08-31T07:14:37.981Z,1.70
2022-08-31T07:17:08.195Z,1.65
2022-08-31T07:19:35.376Z,1.52
2022-08-31T07:22:08.177Z,1.88
2022-08-31T07:24:37.678Z,1.50
2022-08-31T07:27:18.513Z,1.77
2022-08-31T07:30:00.356Z,1.60
2022-08-31T07:32:32.129Z,1.50
2022-08-31T07:35:01.403Z,1.90
2022-08-31T07:37:50.445Z,1.80
2022-08-31T07:40:41.750Z,1.67
2022-08-31T07:43:10.834Z,1.58
2022-08-31T07:45:40.723Z,1.70
2022-08-31T07:48:09.034Z,1.33
2022-08-31T07:50:47.462Z,1.38
2022-08-31T07:53:18.180Z,1.77
2022-08-31T07:55:55.804Z,1.88
2022-08-31T07:58:42.731Z,1.70
2022-08-31T08:01:11.983Z,1.70
2022-08-31T08:03:43.965Z,1.38
2022-08-31T08:06:32.547Z,1.73
2022-08-31T08:09:22.495Z,1.80
2022-08-31T08:12:09.193Z,1.70
2022-08-31T08:15:03.906Z,1.67
2022-08-31T08:17:56.587Z,1.70
2022-08-31T08:20:35.406Z,1.85
2022-08-31T08:23:17.941Z,1.60
2022-08-31T08:26:21.161Z,1.77
2022-08-31T08:29:21.176Z,1.70
2022-08-31T08:31:53.012Z,1.90
2022-08-31T08:34:32.118Z,1.63
2022-08-31T08:37:01.719Z,1.90
2022-08-31T08:39:29.536Z,1.90
2022-08-31T08:42:14.363Z,1.40
2022-08-31T08:44:44.095Z,1.90
2022-08-31T08:47:38.558Z,1.70
2022-08-31T08:50:07.800Z,1.90
2022-08-31T08:52:42.704Z,1.55
2022-08-31T08:55:19.162Z,1.67
2022-08-31T08:57:52.162Z,1.77
2022-08-31T09:00:25.661Z,1.70
2022-08-31T09:03:38.668Z,1.77
2022-08-31T09:07:23.073Z,1.80
2022-08-31T09:10:26.675Z,1.85
2022-08-31T09:13:49.205Z,1.95
2022-08-31T09:16:57.822Z,2.00
2022-08-31T09:19:26.520Z,2.30
2022-08-31T09:21:56.577Z,2.05
2022-08-31T09:24:30.132Z,1.95
2022-08-31T09:27:27.312Z,2.05
2022-08-31T09:30:01.367Z,2.10
2022-08-31T09:32:34.943Z,1.80
2022-08-31T09:35:23.708Z,2.42
2022-08-31T09:38:09.910Z,2.22
2022-08-31T09:40:49.872Z,2.20
2022-08-31T09:43:38.088Z,2.60
2022-08-31T09:46:28.054Z,2.75
2022-08-31T09:49:03.205Z,2.10
2022-08-31T09:51:38.729Z,2.42
2022-08-31T09:54:40.125Z,2.22
2022-08-31T09:57:11.433Z,2.63
2022-08-31T09:59:51.636Z,2.15
2022-08-31T10:02:26.987Z,2.08
2022-08-31T10:05:06.710Z,2.20
2022-08-31T10:07:49.636Z,2.30
2022-08-31T10:10:30.499Z,2.45
2022-08-31T10:13:10.250Z,2.80
2022-08-31T10:15:48.448Z,2.53
2022-08-31T10:18:28.502Z,2.67
2022-08-31T10:21:12.415Z,2.75
2022-08-31T10:23:56.204Z,2.80
2022-08-31T10:26:40.112Z,2.50
2022-08-31T10:29:23.211Z,2.65
2022-08-31T10:31:55.192Z,2.92
2022-08-31T10:34:51.191Z,2.95
2022-08-31T10:37:39.071Z,3.17
2022-08-31T10:40:34.762Z,2.60
2022-08-31T10:43:21.471Z,2.65
2022-08-31T10:45:53.866Z,2.63
2022-08-31T10:48:25.421Z,3.25
2022-08-31T10:51:28.958Z,2.97
2022-08-31T10:54:22.013Z,3.10
2022-08-31T10:57:32.236Z,3.05
2022-08-31T11:00:44.562Z,3.10
2022-08-31T11:03:42.708Z,3.10
2022-08-31T11:06:39.792Z,3.17
2022-08-31T11:09:26.219Z,3.30
2022-08-31T11:12:10.304Z,3.30
2022-08-31T11:14:53.429Z,3.05
2022-08-31T11:18:00.879Z,3.00
2022-08-31T11:21:07.972Z,2.83
2022-08-31T11:24:04.630Z,2.47
2022-08-31T11:27:11.795Z,2.72
2022-08-31T11:30:08.141Z,2.75
2022-08-31T11:32:59.426Z,2.92
2022-08-31T11:36:07.183Z,2.35
2022-08-31T11:38:48.044Z,2.38
2022-08-31T11:41:31.568Z,2.30
2022-08-31T11:44:06.133Z,2.30
2022-08-31T11:46:37.963Z,2.08
2022-08-31T11:49:11.016Z,2.50
2022-08-31T11:51:46.392Z,2.20
2022-08-31T11:54:25.829Z,2.70
2022-08-31T11:57:02.251Z,2.72
2022-08-31T11:59:46.228Z,1.85
2022-08-31T12:02:25.896Z,2.40
2022-08-31T12:04:53.490Z,2.03
2022-08-31T12:07:33.972Z,2.00
2022-08-31T12:10:34.269Z,2.00
2022-08-31T12:13:19.511Z,2.42
2022-08-31T12:16:20.916Z,1.70
2022-08-31T12:19:36.215Z,2.33
2022-08-31T12:23:05.961Z,2.47
2022-08-31T12:26:28.121Z,2.25
2022-08-31T12:29:23.420Z,2.40
2022-08-31T12:32:27.257Z,2.60
2022-08-31T12:35:14.684Z,2.42
2022-08-31T12:37:43.979Z,2.40
2022-08-31T12:40:22.703Z,2.00
2022-08-31T12:43:04.308Z,2.33
2022-08-31T12:46:02.977Z,2.70
2022-08-31T12:49:00.798Z,2.60
2022-08-31T12:51:44.352Z,2.22
2022-08-31T12:54:38.737Z,2.60
2022-08-31T12:58:01.405Z,2.35
2022-08-31T13:00:33.441Z,2.03
2022-08-31T13:03:24.223Z,2.80
2022-08-31T13:06:16.138Z,2.70
2022-08-31T13:08:48.133Z,2.17
2022-08-31T13:11:24.360Z,2.50
2022-08-31T13:13:54.091Z,2.05
2022-08-31T13:16:22.211Z,1.98
2022-08-31T13:19:06.883Z,2.42
2022-08-31T13:21:36.264Z,2.78
2022-08-31T13:24:10.786Z,2.30
2022-08-31T13:26:38.547Z,2.40
2022-08-31T13:29:10.137Z,2.10
2022-08-31T13:31:50.816Z,2.30
2022-08-31T13:34:20.460Z,2.30
2022-08-31T13:36:55.040Z,2.35
2022-08-31T13:39:39.087Z,2.10
2022-08-31T13:42:50.053Z,2.50
2022-08-31T13:45:38.856Z,2.28
2022-08-31T13:48:24.281Z,2.10
2022-08-31T13:51:00.700Z,2.60
2022-08-31T13:53:40.579Z,1.90
2022-08-31T13:57:01.020Z,2.15
2022-08-31T13:59:34.586Z,2.22
2022-08-31T14:02:19.309Z,2.13
2022-08-31T14:05:05.010Z,2.33
2022-08-31T14:07:42.241Z,2.63
2022-08-31T14:10:21.241Z,2.20
2022-08-31T14:12:53.735Z,2.40
2022-08-31T14:15:33.426Z,2.47
2022-08-31T14:18:25.436Z,2.20
2022-08-31T14:21:27.148Z,2.30
2022-08-31T14:24:02.111Z,2.60
2022-08-31T14:26:33.963Z,2.50
2022-08-31T14:29:11.355Z,2.13
2022-08-31T14:31:46.954Z,2.40
2022-08-31T14:34:30.350Z,2.65
2022-08-31T14:37:19.599Z,2.10
2022-08-31T14:40:05.576Z,2.28
2022-08-31T14:42:38.621Z,2.25
2022-08-31T14:45:18.727Z,2.60
2022-08-31T14:47:52.207Z,2.40
2022-08-31T14:50:25.366Z,2.85
2022-08-31T14:52:55.423Z,2.25
2022-08-31T14:55:25.840Z,2.50
2022-08-31T14:58:05.141Z,2.20
2022-08-31T15:00:35.552Z,2.20
2022-08-31T15:03:02.976Z,2.45
2022-08-31T15:05:29.884Z,1.95
2022-08-31T15:07:57.315Z,2.17
2022-08-31T15:10:26.259Z,2.10
2022-08-31T15:12:54.191Z,2.25
2022-08-31T15:15:21.913Z,2.40
2022-08-31T15:17:51.769Z,2.40
2022-08-31T15:20:20.120Z,2.30
2022-08-31T15:22:48.165Z,2.47
2022-08-31T15:25:17.051Z,1.95
2022-08-31T15:27:44.568Z,2.10
2022-08-31T15:30:18.810Z,2.20
2022-08-31T15:32:48.115Z,2.50
2022-08-31T15:35:24.554Z,2.42
2022-08-31T15:38:01.021Z,2.20
2022-08-31T15:40:38.617Z,2.28
2022-08-31T15:43:09.531Z,2.22
2022-08-31T15:45:36.987Z,2.25
2022-08-31T15:48:22.735Z,2.25
2022-08-31T15:51:01.285Z,2.30
2022-08-31T15:53:30.680Z,2.20
2022-08-31T15:56:05.702Z,2.25
2022-08-31T15:58:35.657Z,2.10
2022-08-31T16:01:05.593Z,1.80
2022-08-31T16:03:35.161Z,1.98
2022-08-31T16:06:04.284Z,2.03
2022-08-31T16:08:31.502Z,2.08
2022-08-31T16:11:01.008Z,2.00
2022-08-31T16:13:28.211Z,2.40
2022-08-31T16:15:55.369Z,2.10
2022-08-31T16:18:22.859Z,1.90
2022-08-31T16:20:53.883Z,2.47
2022-08-31T16:23:21.258Z,2.00
2022-08-31T16:25:49.476Z,2.00
2022-08-31T16:28:20.205Z,2.10
2022-08-31T16:30:48.682Z,2.03
2022-08-31T16:33:18.306Z,1.80
2022-08-31T16:35:45.654Z,1.88
2022-08-31T16:38:13.413Z,2.25
2022-08-31T16:40:41.902Z,2.00
2022-08-31T16:43:09.540Z,2.10
2022-08-31T16:45:40.176Z,2.72
2022-08-31T16:48:29.930Z,2.33
2022-08-31T16:51:01.731Z,2.00
2022-08-31T16:53:28.815Z,2.30
2022-08-31T16:55:59.019Z,1.95
2022-08-31T16:58:50.184Z,1.80
2022-08-31T17:01:16.989Z,2.05
2022-08-31T17:04:00.795Z,1.60
2022-08-31T17:06:32.489Z,1.98
2022-08-31T17:09:05.263Z,1.60
2022-08-31T17:11:39.805Z,1.98
2022-08-31T17:14:08.761Z,1.88
2022-08-31T17:16:40.608Z,1.73
2022-08-31T17:19:13.468Z,1.80
2022-08-31T17:21:49.914Z,1.90
2022-08-31T17:24:25.673Z,1.67
2022-08-31T17:27:01.240Z,1.80
2022-08-31T17:29:32.605Z,1.80
2022-08-31T17:32:06.718Z,1.75
2022-08-31T17:34:36.067Z,1.63
2022-08-31T17:37:15.402Z,2.00
2022-08-31T17:39:45.343Z,1.75
2022-08-31T17:42:16.016Z,1.70
2022-08-31T17:44:44.865Z,1.75
2022-08-31T17:47:11.937Z,1.85
2022-08-31T17:49:43.222Z,2.00
2022-08-31T17:52:13.689Z,1.80
2022-08-31T17:54:43.184Z,1.90
2022-08-31T17:57:14.221Z,1.67
2022-08-31T17:59:49.061Z,1.73
2022-08-31T18:02:31.190Z,2.00
2022-08-31T18:04:59.561Z,1.55
2022-08-31T18:07:26.625Z,1.58
2022-08-31T18:09:53.798Z,1.70
2022-08-31T18:12:25.781Z,1.70
2022-08-31T18:14:54.385Z,1.55
2022-08-31T18:17:22.450Z,1.70
2022-08-31T18:19:49.775Z,1.83
2022-08-31T18:22:18.164Z,1.60
2022-08-31T18:24:45.615Z,1.70
2022-08-31T18:27:15.458Z,1.90
2022-08-31T18:29:44.646Z,1.60
2022-08-31T18:32:13.034Z,1.70
2022-08-31T18:34:47.250Z,1.40
2022-08-31T18:37:21.913Z,1.50
2022-08-31T18:40:08.475Z,1.60
2022-08-31T18:42:56.997Z,1.50
2022-08-31T18:45:25.832Z,1.63
2022-08-31T18:50:47.733Z,1.60
2022-08-31T18:53:29.314Z,1.92
2022-08-31T18:56:08.806Z,1.80
2022-08-31T18:58:38.257Z,1.60
2022-08-31T19:01:11.301Z,1.58
2022-08-31T19:03:40.935Z,1.70
2022-08-31T19:06:15.189Z,1.63
2022-08-31T19:08:42.229Z,1.50
2022-08-31T19:11:09.232Z,1.75
2022-08-31T19:13:38.588Z,1.58
2022-08-31T19:16:15.058Z,1.50
2022-08-31T19:18:44.459Z,1.60
2022-08-31T19:21:21.657Z,1.52
2022-08-31T19:23:49.519Z,1.80
2022-08-31T19:26:30.077Z,1.58
2022-08-31T19:29:02.546Z,1.70
2022-08-31T19:31:30.146Z,1.60
2022-08-31T19:33:57.477Z,1.75
2022-08-31T19:36:27.171Z,1.55
2022-08-31T19:38:55.687Z,1.73
2022-08-31T19:41:28.252Z,1.70
2022-08-31T19:44:05.667Z,1.77
2022-08-31T19:46:36.156Z,1.60
2022-08-31T19:49:03.426Z,1.60
2022-08-31T19:51:31.553Z,1.55
2022-08-31T19:54:03.372Z,1.48
2022-08-31T19:56:31.193Z,1.38
2022-08-31T19:59:03.586Z,1.60
2022-08-31T20:01:34.127Z,1.70
2022-08-31T20:04:08.093Z,1.40
2022-08-31T20:06:35.116Z,1.50
2022-08-31T20:09:05.333Z,1.58
2022-08-31T20:11:35.686Z,1.38
2022-08-31T20:14:04.994Z,1.70
2022-08-31T20:16:36.868Z,1.75
2022-08-31T20:19:05.797Z,1.30
2022-08-31T20:21:35.183Z,1.50
2022-08-31T20:24:09.897Z,1.50
2022-08-31T20:26:47.336Z,1.60
2022-08-31T20:29:20.953Z,1.40
2022-08-31T20:31:51.791Z,1.20
2022-08-31T20:34:22.813Z,1.25
2022-08-31T20:36:58.511Z,1.55
2022-08-31T20:39:31.013Z,1.35
2022-08-31T20:42:02.069Z,1.40
2022-08-31T20:44:36.034Z,1.35
2022-08-31T20:47:30.985Z,1.30
2022-08-31T20:50:02.359Z,1.30
2022-08-31T20:52:34.852Z,1.30
2022-08-31T20:55:05.386Z,1.42
2022-08-31T20:57:38.900Z,1.42
2022-08-31T21:00:10.375Z,1.50
2022-08-31T21:02:41.534Z,1.30
2022-08-31T21:08:05.832Z,1.42
2022-08-31T21:10:38.309Z,1.50
2022-08-31T21:13:09.487Z,1.65
2022-08-31T21:15:46.743Z,1.40
2022-08-31T21:18:17.334Z,1.30
2022-08-31T21:20:48.693Z,1.50
2022-08-31T21:23:15.978Z,1.73
2022-08-31T21:25:45.953Z,1.45
2022-08-31T21:28:17.130Z,1.50
2022-08-31T21:30:47.095Z,1.30
2022-08-31T21:33:14.212Z,1.33
2022-08-31T21:35:41.353Z,1.50
2022-08-31T21:38:12.640Z,1.30
2022-08-31T21:40:48.982Z,1.30
2022-08-31T21:43:16.474Z,1.30
2022-08-31T21:45:43.670Z,1.13
2022-08-31T21:48:10.592Z,1.48
2022-08-31T21:50:37.664Z,1.23
2022-08-31T21:53:04.692Z,1.60
2022-08-31T21:55:32.129Z,1.50
2022-08-31T21:57:59.780Z,1.50
2022-08-31T22:00:31.914Z,1.30
2022-08-31T22:02:59.050Z,1.60
2022-08-31T22:05:26.298Z,1.60
2022-08-31T22:07:53.223Z,1.60
2022-08-31T22:10:20.453Z,1.40
2022-08-31T22:12:47.522Z,1.38
2022-08-31T22:15:17.592Z,1.30
2022-08-31T22:18:04.761Z,1.17
2022-08-31T22:20:40.780Z,1.30
2022-08-31T22:23:10.062Z,1.10
2022-08-31T22:25:38.409Z,1.15
2022-08-31T22:28:10.241Z,1.40
2022-08-31T22:30:37.460Z,1.20
2022-08-31T22:33:05.052Z,1.30
2022-08-31T22:35:38.476Z,1.17
2022-08-31T22:38:06.629Z,1.17
2022-08-31T22:40:39.507Z,1.25
2022-08-31T22:43:09.459Z,1.05
2022-08-31T22:45:48.634Z,1.10
2022-08-31T22:48:16.613Z,1.05
2022-08-31T22:50:43.844Z,1.00
2022-08-31T22:53:14.294Z,1.20
2022-08-31T22:55:43.002Z,1.20
2022-08-31T22:58:10.439Z,0.90
2022-08-31T23:00:37.494Z,1.00
2022-08-31T23:03:05.023Z,1.30
2022-08-31T23:05:32.187Z,0.88
2022-08-31T23:08:02.214Z,1.02
2022-08-31T23:10:29.669Z,1.25
2022-08-31T23:13:05.860Z,1.05
2022-08-31T23:15:33.635Z,1.20
2022-08-31T23:18:02.078Z,1.20
2022-08-31T23:20:30.090Z,1.60
2022-08-31T23:22:57.084Z,1.30
2022-08-31T23:25:25.153Z,1.40
2022-08-31T23:27:53.361Z,1.10
2022-08-31T23:30:22.567Z,1.30
2022-08-31T23:32:50.520Z,1.20
2022-08-31T23:35:18.807Z,1.20
2022-08-31T23:37:46.492Z,1.15
2022-08-31T23:40:16.079Z,1.20
2022-08-31T23:42:43.292Z,1.30
2022-08-31T23:45:12.669Z,1.20
2022-08-31T23:47:39.837Z,1.20
2022-08-31T23:50:08.095Z,1.30
2022-08-31T23:52:37.581Z,1.02
2022-08-31T23:55:06.080Z,1.30
2022-08-31T23:57:33.749Z,1.05
